aviador You're here:

DTTF Decoded Metar

GAFSA in TUNISIA
Report Time2017-11-18 13:00:00
UTC Time2017-11-18 13:55:42
Flight Rules vfr VFR
Wind250° at 08 kt
W.Decomp.*RWY 23: 7.6 kt HW 2.6 kt RCW
W.Rank250° ranks 13
Current wind is below 250° avg. (8.3)
Visibility9999 m
Phenomena:N/A
Clouds:Few 026 Hf
Expected CloudBase > 6,000 ft AGL from Temp-Dew spread
CeilingNone
Temp19°C (ISA +6)
Dew Point04°C (37% RH)
AAT14.8°C
QNH1016 hPa
Density Alt1,752 ft
Elevation1,030 ft
Report Wrong Elevation
Raw Report
METAR DTTF 181300Z 25008KT 210V290 9999 FEW026 19/04 Q1016 NOSIG=

Extra information for DTTF:More info

Metar Taf Metar & Taf Last 4 Metars F.Rules Stats Wind Profile Meteogram Temp Stats Airport Information Weather charts Add Link Nearby VenuesMetar ALERT Operation Metar Decoded Social comments